createdAt,value
2017-12-29T00:01:07.426Z,16.60
2017-12-29T00:03:35.358Z,16.50
2017-12-29T00:06:02.525Z,16.50
2017-12-29T00:08:29.694Z,16.50
2017-12-29T00:10:56.905Z,16.50
2017-12-29T00:13:24.076Z,16.50
2017-12-29T00:15:51.240Z,16.50
2017-12-29T00:18:19.229Z,16.60
2017-12-29T00:20:47.165Z,16.70
2017-12-29T00:23:14.366Z,16.70
2017-12-29T00:25:42.345Z,16.80
2017-12-29T00:28:09.547Z,16.80
2017-12-29T00:30:37.491Z,16.80
2017-12-29T00:33:04.658Z,16.70
2017-12-29T00:35:31.821Z,16.70
2017-12-29T00:37:59.753Z,16.70
2017-12-29T00:40:26.919Z,16.70
2017-12-29T00:42:54.905Z,16.60
2017-12-29T00:45:22.836Z,16.60
2017-12-29T00:47:50.946Z,16.60
2017-12-29T00:50:19.004Z,16.60
2017-12-29T00:52:46.209Z,16.60
2017-12-29T00:55:15.072Z,16.50
2017-12-29T00:57:43.168Z,16.60
2017-12-29T01:00:11.100Z,16.60
2017-12-29T01:02:38.313Z,16.60
2017-12-29T01:05:06.372Z,16.50
2017-12-29T01:07:33.550Z,16.60
2017-12-29T01:10:01.664Z,16.50
2017-12-29T01:12:28.832Z,16.50
2017-12-29T01:14:55.993Z,16.50
2017-12-29T01:17:23.931Z,16.50
2017-12-29T01:19:51.096Z,16.50
2017-12-29T01:22:18.265Z,16.50
2017-12-29T01:24:46.195Z,16.50
2017-12-29T01:27:14.138Z,16.50
2017-12-29T01:29:41.348Z,16.50
2017-12-29T01:32:08.512Z,16.50
2017-12-29T01:34:36.441Z,16.50
2017-12-29T01:37:03.608Z,16.50
2017-12-29T01:39:30.778Z,16.50
2017-12-29T01:41:58.718Z,16.50
2017-12-29T01:44:25.886Z,16.50
2017-12-29T01:46:53.088Z,16.40
2017-12-29T01:49:20.255Z,16.40
2017-12-29T01:51:48.073Z,16.40
2017-12-29T01:54:16.009Z,16.40
2017-12-29T01:56:43.164Z,16.40
2017-12-29T01:59:10.324Z,16.40
2017-12-29T02:01:38.313Z,16.40
2017-12-29T02:04:06.249Z,16.40
2017-12-29T02:06:33.416Z,16.40
2017-12-29T02:09:00.580Z,16.40
2017-12-29T02:11:27.745Z,16.40
2017-12-29T02:13:55.673Z,16.40
2017-12-29T02:16:22.837Z,16.40
2017-12-29T02:18:50.005Z,16.30
2017-12-29T02:21:17.168Z,16.40
2017-12-29T02:23:45.100Z,16.30
2017-12-29T02:26:12.306Z,16.20
2017-12-29T02:28:39.478Z,16.30
2017-12-29T02:31:06.645Z,16.30
2017-12-29T02:33:33.861Z,16.30
2017-12-29T02:36:01.020Z,16.30
2017-12-29T02:38:28.185Z,16.30
2017-12-29T02:40:56.248Z,16.40
2017-12-29T02:43:23.452Z,16.50
2017-12-29T02:45:50.617Z,16.60
2017-12-29T02:48:18.571Z,16.60
2017-12-29T02:50:45.735Z,16.70
2017-12-29T02:53:14.442Z,16.60
2017-12-29T02:55:41.613Z,16.60
2017-12-29T02:58:08.779Z,16.60
2017-12-29T03:00:35.984Z,16.60
2017-12-29T03:03:04.957Z,16.60
2017-12-29T03:05:32.121Z,16.60
2017-12-29T03:08:00.050Z,16.60
2017-12-29T03:10:27.946Z,16.50
2017-12-29T03:12:56.006Z,16.50
2017-12-29T03:15:23.168Z,16.50
2017-12-29T03:17:51.112Z,16.50
2017-12-29T03:20:19.189Z,16.50
2017-12-29T03:22:47.237Z,16.50
2017-12-29T03:25:14.408Z,16.50
2017-12-29T03:27:42.471Z,16.50
2017-12-29T03:30:09.637Z,16.50
2017-12-29T03:32:36.796Z,16.40
2017-12-29T03:35:04.888Z,16.40
2017-12-29T03:37:32.949Z,16.40
2017-12-29T03:40:01.052Z,16.40
2017-12-29T03:42:29.886Z,16.40
2017-12-29T03:44:58.005Z,16.40
2017-12-29T03:47:26.080Z,16.40
2017-12-29T03:49:54.008Z,16.30
2017-12-29T03:52:21.976Z,16.30
2017-12-29T03:54:50.044Z,16.40
2017-12-29T03:57:18.156Z,16.40
2017-12-29T03:59:45.320Z,16.40
2017-12-29T04:02:13.252Z,16.30
2017-12-29T04:04:41.192Z,16.30
2017-12-29T04:07:08.401Z,16.40
2017-12-29T04:09:36.492Z,16.30
2017-12-29T04:12:04.421Z,16.30
2017-12-29T04:14:32.409Z,16.30
2017-12-29T04:16:59.576Z,16.30
2017-12-29T04:19:28.332Z,16.30
2017-12-29T04:21:55.484Z,16.30
2017-12-29T04:24:23.540Z,16.30
2017-12-29T04:26:50.705Z,16.30
2017-12-29T04:29:17.864Z,16.20
2017-12-29T04:31:45.793Z,16.30
2017-12-29T04:34:13.856Z,16.30
2017-12-29T04:36:41.013Z,16.30
2017-12-29T04:39:08.983Z,16.30
2017-12-29T04:41:36.154Z,16.30
2017-12-29T04:44:03.309Z,16.30
2017-12-29T04:46:31.281Z,16.30
2017-12-29T04:48:59.336Z,16.30
2017-12-29T04:51:27.436Z,16.20
2017-12-29T04:53:54.592Z,16.30
2017-12-29T04:56:21.789Z,16.30
2017-12-29T04:58:50.203Z,16.20
2017-12-29T05:01:18.076Z,16.20
2017-12-29T05:03:45.236Z,16.30
2017-12-29T05:06:13.180Z,16.40
2017-12-29T05:08:41.276Z,16.40
2017-12-29T05:11:08.432Z,16.50
2017-12-29T05:13:35.628Z,16.50
2017-12-29T05:16:04.325Z,16.50
2017-12-29T05:18:32.430Z,16.40
2017-12-29T05:21:00.488Z,16.40
2017-12-29T05:23:28.559Z,16.40
2017-12-29T05:25:55.716Z,16.40
2017-12-29T05:28:22.873Z,16.40
2017-12-29T05:30:50.032Z,16.40
2017-12-29T05:33:17.195Z,16.40
2017-12-29T05:35:44.352Z,16.40
2017-12-29T05:38:12.284Z,16.40
2017-12-29T05:40:39.447Z,16.40
2017-12-29T05:43:06.612Z,16.40
2017-12-29T05:45:33.779Z,16.40
2017-12-29T05:48:00.936Z,16.40
2017-12-29T05:50:28.096Z,16.30
2017-12-29T05:52:55.257Z,16.30
2017-12-29T05:55:23.237Z,16.30
2017-12-29T05:57:51.166Z,16.30
2017-12-29T06:00:18.326Z,16.30
2017-12-29T06:02:46.252Z,16.30
2017-12-29T06:05:13.415Z,16.30
2017-12-29T06:07:40.580Z,16.30
2017-12-29T06:10:07.741Z,16.20
2017-12-29T06:12:35.812Z,16.20
2017-12-29T06:15:03.869Z,16.20
2017-12-29T06:17:31.935Z,16.20
2017-12-29T06:19:59.134Z,16.20
2017-12-29T06:22:26.296Z,16.30
2017-12-29T06:24:54.254Z,16.30
2017-12-29T06:27:21.448Z,16.30
2017-12-29T06:29:48.616Z,16.20
2017-12-29T06:32:15.773Z,16.20
2017-12-29T06:34:42.932Z,16.20
2017-12-29T06:37:10.137Z,16.10
2017-12-29T06:39:38.068Z,16.20
2017-12-29T06:42:05.268Z,16.20
2017-12-29T06:44:32.431Z,16.20
2017-12-29T06:46:59.595Z,16.10
2017-12-29T06:49:26.756Z,16.10
2017-12-29T06:51:53.913Z,16.20
2017-12-29T06:54:21.081Z,16.20
2017-12-29T06:56:48.301Z,16.20
2017-12-29T06:59:16.377Z,16.20
2017-12-29T07:01:43.542Z,16.30
2017-12-29T07:04:10.705Z,16.30
2017-12-29T07:06:37.902Z,16.40
2017-12-29T07:09:05.865Z,16.50
2017-12-29T07:11:33.825Z,16.40
2017-12-29T07:14:01.757Z,16.40
2017-12-29T07:16:29.741Z,16.40
2017-12-29T07:19:01.406Z,16.40
2017-12-29T07:21:28.572Z,16.40
2017-12-29T07:23:56.565Z,16.40
2017-12-29T07:26:39.938Z,16.40
2017-12-29T07:29:16.433Z,16.40
2017-12-29T07:31:44.597Z,16.40
2017-12-29T07:34:11.797Z,16.40
2017-12-29T07:36:38.999Z,16.40
2017-12-29T07:39:06.449Z,16.40
2017-12-29T07:41:33.613Z,16.40
2017-12-29T07:44:00.812Z,16.40
2017-12-29T07:46:27.977Z,16.40
2017-12-29T07:48:55.184Z,16.40
2017-12-29T07:51:23.137Z,16.40
2017-12-29T07:53:50.306Z,16.30
2017-12-29T07:56:18.272Z,16.30
2017-12-29T07:58:45.438Z,16.30
2017-12-29T08:01:13.366Z,16.30
2017-12-29T08:06:14.892Z,16.30
2017-12-29T08:08:42.106Z,16.30
2017-12-29T08:11:09.283Z,16.30
2017-12-29T08:13:37.233Z,16.30
2017-12-29T08:16:05.165Z,16.30
2017-12-29T08:18:37.169Z,16.30
2017-12-29T08:21:05.337Z,16.30
2017-12-29T08:23:32.626Z,16.30
2017-12-29T08:26:00.593Z,16.30
2017-12-29T08:28:28.570Z,16.30
2017-12-29T08:30:56.429Z,16.30
2017-12-29T08:33:24.361Z,16.30
2017-12-29T08:35:51.532Z,16.30
2017-12-29T08:38:18.781Z,16.20
2017-12-29T08:40:46.062Z,16.30
2017-12-29T08:43:14.094Z,16.30
2017-12-29T08:45:41.265Z,16.30
2017-12-29T08:48:08.471Z,16.40
2017-12-29T08:50:35.636Z,16.50
2017-12-29T08:53:02.842Z,16.60
2017-12-29T08:55:30.017Z,16.60
2017-12-29T08:57:57.178Z,16.70
2017-12-29T09:00:24.506Z,16.60
2017-12-29T09:02:51.664Z,16.50
2017-12-29T09:05:18.865Z,16.50
2017-12-29T09:07:46.038Z,16.50
2017-12-29T09:10:14.013Z,16.50
2017-12-29T09:12:41.978Z,16.50
2017-12-29T09:15:09.913Z,16.50
2017-12-29T09:17:37.072Z,16.50
2017-12-29T09:20:04.234Z,16.40
2017-12-29T09:22:31.409Z,16.50
2017-12-29T09:25:00.357Z,16.40
2017-12-29T09:27:27.529Z,16.40
2017-12-29T09:29:54.697Z,16.40
2017-12-29T09:32:22.654Z,16.40
2017-12-29T09:34:49.819Z,16.40
2017-12-29T09:37:17.808Z,16.40
2017-12-29T09:39:45.781Z,16.40
2017-12-29T09:42:13.051Z,16.30
2017-12-29T09:44:40.249Z,16.30
2017-12-29T09:47:07.419Z,16.30
2017-12-29T09:49:35.349Z,16.20
2017-12-29T09:52:02.514Z,16.20
2017-12-29T09:54:29.672Z,16.30
2017-12-29T09:56:56.837Z,16.30
2017-12-29T09:59:24.793Z,16.20
2017-12-29T10:01:51.961Z,16.20
2017-12-29T10:04:19.126Z,16.30
2017-12-29T10:06:47.071Z,16.30
2017-12-29T10:09:14.341Z,16.20
2017-12-29T10:11:42.277Z,16.30
2017-12-29T10:14:09.437Z,16.20
2017-12-29T10:16:36.606Z,16.20
2017-12-29T10:19:03.774Z,16.20
2017-12-29T10:21:31.761Z,16.20
2017-12-29T10:23:58.926Z,16.20
2017-12-29T10:26:27.144Z,16.20
2017-12-29T10:28:54.402Z,16.30
2017-12-29T10:31:21.564Z,16.30
2017-12-29T10:33:49.492Z,16.30
2017-12-29T10:36:16.654Z,16.30
2017-12-29T10:38:43.825Z,16.30
2017-12-29T10:41:10.988Z,16.30
2017-12-29T10:43:38.951Z,16.30
2017-12-29T10:46:06.117Z,16.30
2017-12-29T10:48:34.105Z,16.30
2017-12-29T10:51:01.314Z,16.30
2017-12-29T10:53:28.487Z,16.30
2017-12-29T10:55:56.420Z,16.40
2017-12-29T10:58:24.372Z,16.40
2017-12-29T11:00:52.481Z,16.50
2017-12-29T11:03:20.533Z,16.50
2017-12-29T11:05:48.637Z,16.60
2017-12-29T11:08:16.798Z,16.60
2017-12-29T11:10:43.997Z,16.60
2017-12-29T11:13:11.164Z,16.60
2017-12-29T11:15:38.325Z,16.50
2017-12-29T11:18:05.489Z,16.50
2017-12-29T11:20:32.657Z,16.60
2017-12-29T11:22:59.829Z,16.50
2017-12-29T11:25:27.761Z,16.50
2017-12-29T11:27:54.964Z,16.50
2017-12-29T11:30:23.001Z,16.50
2017-12-29T11:32:50.948Z,16.50
2017-12-29T11:35:18.121Z,16.50
2017-12-29T11:37:46.301Z,16.50
2017-12-29T11:40:13.472Z,16.50
2017-12-29T11:42:41.403Z,16.50
2017-12-29T11:45:08.565Z,16.40
2017-12-29T11:47:35.761Z,16.40
2017-12-29T11:50:02.970Z,16.40
2017-12-29T11:52:30.181Z,16.50
2017-12-29T11:54:57.344Z,16.50
2017-12-29T11:57:24.505Z,16.50
2017-12-29T11:59:51.717Z,16.40
2017-12-29T12:02:19.645Z,16.30
2017-12-29T12:04:46.866Z,16.30
2017-12-29T12:07:14.058Z,16.30
2017-12-29T12:09:41.229Z,16.40
2017-12-29T12:12:09.165Z,16.40
2017-12-29T12:14:36.368Z,16.40
2017-12-29T12:17:03.529Z,16.40
2017-12-29T12:19:31.525Z,16.40
2017-12-29T12:21:58.690Z,16.40
2017-12-29T12:24:25.855Z,16.40
2017-12-29T12:26:53.053Z,16.40
2017-12-29T12:29:20.219Z,16.40
2017-12-29T12:31:47.426Z,16.40
2017-12-29T12:34:15.353Z,16.40
2017-12-29T12:36:42.570Z,16.40
2017-12-29T12:39:09.781Z,16.20
2017-12-29T12:41:36.949Z,16.20
2017-12-29T12:44:04.884Z,16.20
2017-12-29T12:46:32.085Z,16.20
2017-12-29T12:49:00.017Z,16.50
2017-12-29T12:51:27.185Z,16.50
2017-12-29T12:53:55.241Z,16.60
2017-12-29T12:56:22.397Z,16.60
2017-12-29T12:58:49.555Z,16.10
2017-12-29T13:01:16.749Z,16.20
2017-12-29T13:03:43.942Z,16.30
2017-12-29T13:06:11.104Z,16.40
2017-12-29T13:08:38.309Z,16.50
2017-12-29T13:11:05.471Z,16.50
2017-12-29T13:13:32.637Z,16.50
2017-12-29T13:15:59.802Z,16.50
2017-12-29T13:18:26.965Z,16.50
2017-12-29T13:20:54.126Z,16.50
2017-12-29T13:23:21.292Z,16.50
2017-12-29T13:25:49.230Z,16.40
2017-12-29T13:28:16.393Z,16.40
2017-12-29T13:30:43.553Z,16.50
2017-12-29T13:33:11.495Z,16.50
2017-12-29T13:35:38.761Z,16.50
2017-12-29T13:38:05.925Z,16.50
2017-12-29T13:40:33.089Z,16.50
2017-12-29T13:43:01.022Z,16.10
2017-12-29T13:45:28.230Z,16.10
2017-12-29T13:47:56.176Z,15.70
2017-12-29T13:50:24.129Z,15.80
2017-12-29T13:52:51.288Z,15.80
2017-12-29T13:55:19.349Z,16.00
2017-12-29T13:57:47.348Z,16.00
2017-12-29T14:00:15.282Z,16.10
2017-12-29T14:02:42.446Z,16.20
2017-12-29T14:05:09.691Z,16.30
2017-12-29T14:07:36.841Z,16.50
2017-12-29T14:10:04.053Z,16.60
2017-12-29T14:12:31.214Z,16.60
2017-12-29T14:14:58.389Z,16.60
2017-12-29T14:17:25.552Z,16.40
2017-12-29T14:19:52.717Z,16.30
2017-12-29T14:22:19.881Z,16.00
2017-12-29T14:24:47.850Z,15.40
2017-12-29T14:27:15.783Z,15.20
2017-12-29T14:29:42.949Z,15.20
2017-12-29T14:32:10.164Z,15.50
2017-12-29T14:34:37.324Z,15.70
2017-12-29T14:37:05.429Z,16.00
2017-12-29T14:39:32.593Z,16.10
2017-12-29T14:42:01.570Z,16.30
2017-12-29T14:44:28.732Z,16.30
2017-12-29T14:46:56.281Z,16.30
2017-12-29T14:49:23.449Z,16.40
2017-12-29T14:51:51.436Z,16.40
2017-12-29T14:54:18.601Z,16.40
2017-12-29T14:56:45.807Z,16.40
2017-12-29T14:59:12.964Z,16.40
2017-12-29T15:01:40.211Z,16.40
2017-12-29T15:04:07.374Z,16.40
2017-12-29T15:06:35.301Z,16.50
2017-12-29T15:09:03.249Z,16.50
2017-12-29T15:11:30.492Z,16.50
2017-12-29T15:13:57.654Z,16.50
2017-12-29T15:16:25.722Z,16.50
2017-12-29T15:18:52.890Z,16.40
2017-12-29T15:21:20.082Z,16.40
2017-12-29T15:23:47.294Z,16.40
2017-12-29T15:26:14.462Z,16.40
2017-12-29T15:28:41.632Z,16.50
2017-12-29T15:31:08.816Z,16.50
2017-12-29T15:33:37.512Z,16.50
2017-12-29T15:36:04.673Z,16.50
2017-12-29T15:38:32.083Z,16.50
2017-12-29T15:41:00.062Z,16.50
2017-12-29T15:43:27.275Z,16.60
2017-12-29T15:45:54.453Z,16.50
2017-12-29T15:48:21.612Z,16.50
2017-12-29T15:50:48.772Z,16.50
2017-12-29T15:53:15.937Z,16.60
2017-12-29T15:55:43.862Z,16.80
2017-12-29T15:58:11.070Z,16.80
2017-12-29T16:00:40.021Z,16.80
2017-12-29T16:03:07.222Z,16.80
2017-12-29T16:05:34.381Z,16.80
2017-12-29T16:08:01.578Z,16.70
2017-12-29T16:10:28.786Z,16.60
2017-12-29T16:12:55.946Z,16.30
2017-12-29T16:15:23.145Z,16.30
2017-12-29T16:17:50.309Z,16.40
2017-12-29T16:20:18.252Z,16.60
2017-12-29T16:22:45.413Z,16.60
2017-12-29T16:25:12.572Z,16.60
2017-12-29T16:27:39.736Z,16.60
2017-12-29T16:30:07.713Z,16.60
2017-12-29T16:32:34.880Z,16.60
2017-12-29T16:35:02.826Z,16.60
2017-12-29T16:37:30.758Z,16.50
2017-12-29T16:39:58.868Z,16.50
2017-12-29T16:42:27.698Z,16.50
2017-12-29T16:44:55.813Z,16.50
2017-12-29T16:47:22.977Z,16.50
2017-12-29T16:49:50.910Z,16.50
2017-12-29T16:52:18.065Z,16.50
2017-12-29T16:54:45.222Z,16.50
2017-12-29T16:57:12.385Z,16.30
2017-12-29T16:59:39.553Z,16.10
2017-12-29T17:02:07.487Z,16.40
2017-12-29T17:04:34.657Z,16.40
2017-12-29T17:07:01.926Z,16.50
2017-12-29T17:09:29.852Z,16.30
2017-12-29T17:11:57.009Z,16.30
2017-12-29T17:14:24.164Z,16.30
2017-12-29T17:16:51.329Z,16.40
2017-12-29T17:19:21.044Z,16.40
2017-12-29T17:21:48.205Z,16.40
2017-12-29T17:24:16.274Z,16.40
2017-12-29T17:26:43.518Z,16.30
2017-12-29T17:29:10.685Z,16.20
2017-12-29T17:31:38.747Z,16.20
2017-12-29T17:34:05.908Z,16.20
2017-12-29T17:36:33.073Z,16.20
2017-12-29T17:39:01.004Z,16.20
2017-12-29T17:41:28.165Z,16.20
2017-12-29T17:43:55.328Z,16.10
2017-12-29T17:46:22.494Z,16.10
2017-12-29T17:48:50.421Z,16.20
2017-12-29T17:51:17.583Z,16.10
2017-12-29T17:53:44.749Z,16.30
2017-12-29T17:56:11.904Z,16.30
2017-12-29T17:58:39.065Z,16.40
2017-12-29T18:01:07.011Z,16.30
2017-12-29T18:03:34.178Z,16.30
2017-12-29T18:06:02.110Z,16.30
2017-12-29T18:08:29.275Z,16.30
2017-12-29T18:10:56.469Z,16.30
2017-12-29T18:13:24.393Z,16.30
2017-12-29T18:15:51.570Z,16.30
2017-12-29T18:18:18.738Z,16.30
2017-12-29T18:20:46.668Z,16.20
2017-12-29T18:23:13.865Z,16.20
2017-12-29T18:25:41.797Z,16.10
2017-12-29T18:28:08.958Z,16.10
2017-12-29T18:30:36.126Z,16.50
2017-12-29T18:33:04.094Z,16.80
2017-12-29T18:35:32.024Z,16.90
2017-12-29T18:37:59.188Z,16.90
2017-12-29T18:40:26.345Z,16.80
2017-12-29T18:42:53.512Z,16.70
2017-12-29T18:45:21.450Z,16.40
2017-12-29T18:47:48.617Z,16.40
2017-12-29T18:50:15.781Z,16.30
2017-12-29T18:52:43.020Z,16.10
2017-12-29T18:55:10.189Z,15.70
2017-12-29T18:57:38.121Z,15.20
2017-12-29T19:00:05.312Z,15.20
2017-12-29T19:02:33.253Z,15.20
2017-12-29T19:05:01.236Z,15.20
2017-12-29T19:07:28.397Z,15.40
2017-12-29T19:09:56.388Z,15.60
2017-12-29T19:12:24.314Z,16.00
2017-12-29T19:14:52.241Z,16.00
2017-12-29T19:17:20.353Z,16.20
2017-12-29T19:19:47.513Z,16.30
2017-12-29T19:22:15.477Z,16.30
2017-12-29T19:24:43.533Z,16.30
2017-12-29T19:27:10.740Z,16.30
2017-12-29T19:29:38.664Z,16.10
2017-12-29T19:32:05.832Z,16.20
2017-12-29T19:34:32.993Z,16.10
2017-12-29T19:37:00.199Z,16.10
2017-12-29T19:39:27.367Z,16.10
2017-12-29T19:41:54.626Z,16.10
2017-12-29T19:44:21.793Z,16.10
2017-12-29T19:46:48.960Z,16.10
2017-12-29T19:49:16.913Z,16.00
2017-12-29T19:51:44.984Z,15.90
2017-12-29T19:54:13.044Z,15.90
2017-12-29T19:56:40.254Z,15.80
2017-12-29T19:59:08.177Z,15.80
2017-12-29T20:01:35.639Z,15.80
2017-12-29T20:04:02.800Z,15.80
2017-12-29T20:06:29.969Z,15.80
2017-12-29T20:08:59.016Z,15.80
2017-12-29T20:11:26.203Z,15.80
2017-12-29T20:13:53.493Z,15.90
2017-12-29T20:16:21.497Z,16.00
2017-12-29T20:21:33.269Z,16.10
2017-12-29T20:24:00.620Z,16.20
2017-12-29T20:26:29.321Z,16.00
2017-12-29T20:28:56.979Z,16.00
2017-12-29T20:31:26.235Z,16.00
2017-12-29T20:33:54.908Z,15.90
2017-12-29T20:36:27.613Z,15.90
2017-12-29T20:38:55.566Z,15.90
2017-12-29T20:41:23.886Z,15.80
2017-12-29T20:43:51.293Z,15.80
2017-12-29T20:46:18.457Z,15.80
2017-12-29T20:48:45.621Z,15.80
2017-12-29T20:51:14.024Z,15.80
2017-12-29T20:53:41.869Z,15.80
2017-12-29T20:56:10.254Z,15.60
2017-12-29T20:58:37.610Z,15.60
2017-12-29T21:01:08.385Z,15.60
2017-12-29T21:03:38.067Z,15.60
2017-12-29T21:06:07.253Z,15.60
2017-12-29T21:08:35.024Z,15.60
2017-12-29T21:11:02.345Z,15.50
2017-12-29T21:13:34.875Z,15.50
2017-12-29T21:16:02.864Z,15.50
2017-12-29T21:18:32.776Z,15.50
2017-12-29T21:21:00.433Z,15.50
2017-12-29T21:23:28.389Z,15.40
2017-12-29T21:25:58.231Z,15.40
2017-12-29T21:28:25.442Z,15.40
2017-12-29T21:33:29.197Z,15.40
2017-12-29T21:36:00.040Z,15.40
2017-12-29T21:38:27.266Z,15.40
2017-12-29T21:40:55.436Z,15.40
2017-12-29T21:43:23.976Z,15.40
2017-12-29T21:45:52.194Z,15.40
2017-12-29T21:48:20.173Z,15.30
2017-12-29T21:50:47.382Z,15.30
2017-12-29T21:53:14.545Z,15.30
2017-12-29T21:55:41.711Z,15.30
2017-12-29T21:58:08.881Z,15.30
2017-12-29T22:00:36.052Z,15.30
2017-12-29T22:03:03.212Z,15.30
2017-12-29T22:05:30.432Z,15.30
2017-12-29T22:07:57.633Z,15.40
2017-12-29T22:10:24.797Z,15.60
2017-12-29T22:12:52.729Z,15.70
2017-12-29T22:15:20.813Z,15.70
2017-12-29T22:17:47.978Z,15.70
2017-12-29T22:20:15.136Z,15.60
2017-12-29T22:22:43.102Z,15.60
2017-12-29T22:25:11.046Z,15.60
2017-12-29T22:27:38.204Z,15.60
2017-12-29T22:30:06.167Z,15.60
2017-12-29T22:32:33.329Z,15.60
2017-12-29T22:35:00.484Z,15.50
2017-12-29T22:37:27.649Z,15.50
2017-12-29T22:39:55.646Z,15.60
2017-12-29T22:42:22.812Z,15.50
2017-12-29T22:47:41.469Z,15.50
2017-12-29T22:50:08.633Z,15.60
2017-12-29T22:52:37.262Z,15.60
2017-12-29T22:55:04.574Z,15.60
2017-12-29T22:57:32.513Z,15.60
2017-12-29T22:59:59.676Z,15.50
2017-12-29T23:02:26.840Z,15.50
2017-12-29T23:04:54.117Z,15.50
2017-12-29T23:07:22.045Z,15.50
2017-12-29T23:09:49.249Z,15.50
2017-12-29T23:12:17.212Z,15.50
2017-12-29T23:14:44.436Z,15.50
2017-12-29T23:17:11.604Z,15.40
2017-12-29T23:19:40.434Z,15.60
2017-12-29T23:22:07.628Z,15.60
2017-12-29T23:24:34.792Z,15.60
2017-12-29T23:27:01.957Z,15.60
2017-12-29T23:29:29.888Z,15.50
2017-12-29T23:31:57.065Z,15.50
2017-12-29T23:34:24.265Z,15.60
2017-12-29T23:36:51.476Z,15.60
2017-12-29T23:39:19.409Z,15.50
2017-12-29T23:41:46.577Z,15.40
2017-12-29T23:44:13.736Z,15.40
2017-12-29T23:46:40.900Z,15.40
2017-12-29T23:49:08.837Z,15.50
2017-12-29T23:51:36.236Z,15.50
2017-12-29T23:54:04.163Z,15.40
2017-12-29T23:56:31.324Z,15.40
2017-12-29T23:58:59.401Z,15.40
